createdAt,value
2022-10-13T00:05:02.126Z,16
2022-10-13T00:10:14.219Z,16
2022-10-13T00:15:26.175Z,16
2022-10-13T00:20:38.317Z,16
2022-10-13T00:25:50.269Z,16
2022-10-13T00:31:02.301Z,16
2022-10-13T00:36:14.209Z,16
2022-10-13T00:41:26.366Z,16
2022-10-13T00:46:38.349Z,16
2022-10-13T00:51:50.253Z,16
2022-10-13T00:57:02.386Z,16
2022-10-13T01:02:14.350Z,16
2022-10-13T01:07:26.417Z,16
2022-10-13T01:12:38.504Z,15
2022-10-13T01:17:50.348Z,16
2022-10-13T01:23:02.289Z,16
2022-10-13T01:28:14.822Z,16
2022-10-13T01:33:26.920Z,16
2022-10-13T01:38:38.911Z,16
2022-10-13T01:43:51.115Z,16
2022-10-13T01:49:03.330Z,16
2022-10-13T01:54:15.372Z,16
2022-10-13T01:59:27.454Z,16
2022-10-13T02:04:39.517Z,16
2022-10-13T02:09:53.328Z,16
2022-10-13T02:15:05.305Z,15
2022-10-13T02:20:17.219Z,15
2022-10-13T02:25:29.108Z,15
2022-10-13T02:30:41.373Z,15
2022-10-13T02:35:53.299Z,15
2022-10-13T02:41:05.188Z,15
2022-10-13T02:46:17.234Z,15
2022-10-13T02:51:29.238Z,15
2022-10-13T02:56:41.158Z,15
2022-10-13T03:01:53.343Z,14
2022-10-13T03:07:05.159Z,15
2022-10-13T03:12:18.365Z,15
2022-10-13T03:17:30.711Z,15
2022-10-13T03:22:50.222Z,15
2022-10-13T03:28:00.999Z,15
2022-10-13T03:33:13.022Z,15
2022-10-13T03:38:25.061Z,15
2022-10-13T03:43:36.940Z,15
2022-10-13T03:48:49.062Z,14
2022-10-13T03:54:00.929Z,14
2022-10-13T03:59:12.765Z,14
2022-10-13T04:04:24.684Z,14
2022-10-13T04:09:36.628Z,14
2022-10-13T04:14:48.459Z,14
2022-10-13T04:20:00.546Z,14
2022-10-13T04:25:12.529Z,14
2022-10-13T04:30:24.479Z,14
2022-10-13T04:35:36.443Z,14
2022-10-13T04:40:48.319Z,14
2022-10-13T04:46:00.180Z,14
2022-10-13T04:51:11.930Z,14
2022-10-13T04:56:23.679Z,14
2022-10-13T05:01:35.550Z,14
2022-10-13T05:07:20.462Z,14
2022-10-13T05:12:27.583Z,14
2022-10-13T05:17:39.015Z,13
2022-10-13T05:22:50.833Z,13
2022-10-13T05:28:02.705Z,13
2022-10-13T05:33:14.684Z,13
2022-10-13T05:38:26.797Z,13
2022-10-13T05:43:38.535Z,13
2022-10-13T05:48:50.184Z,13
2022-10-13T05:54:01.949Z,13
2022-10-13T05:59:13.804Z,13
2022-10-13T06:04:34.972Z,13
2022-10-13T06:09:48.322Z,13
2022-10-13T06:15:00.081Z,13
2022-10-13T06:20:11.822Z,13
2022-10-13T06:25:23.720Z,13
2022-10-13T06:30:35.592Z,13
2022-10-13T06:35:47.931Z,13
2022-10-13T06:40:59.759Z,13
2022-10-13T06:46:11.650Z,13
2022-10-13T06:51:23.911Z,13
2022-10-13T06:56:36.019Z,13
2022-10-13T07:01:47.870Z,13
2022-10-13T07:06:59.681Z,14
2022-10-13T07:12:11.575Z,14
2022-10-13T07:17:23.879Z,13
2022-10-13T07:22:35.479Z,14
2022-10-13T07:27:47.782Z,14
2022-10-13T07:32:59.540Z,14
2022-10-13T07:38:11.540Z,14
2022-10-13T07:43:23.755Z,14
2022-10-13T07:48:35.723Z,15
2022-10-13T07:53:47.731Z,14
2022-10-13T07:58:59.973Z,15
2022-10-13T08:04:11.975Z,15
2022-10-13T08:09:24.139Z,15
2022-10-13T08:14:36.910Z,16
2022-10-13T08:19:48.790Z,16
2022-10-13T08:25:01.022Z,16
2022-10-13T08:30:13.667Z,17
2022-10-13T08:35:25.744Z,17
2022-10-13T08:40:37.882Z,17
2022-10-13T08:45:50.019Z,17
2022-10-13T08:51:02.303Z,17
2022-10-13T08:56:14.463Z,17
2022-10-13T09:01:26.871Z,17
2022-10-13T09:06:39.072Z,18
2022-10-13T09:11:51.261Z,18
2022-10-13T09:17:03.851Z,18
2022-10-13T09:22:16.101Z,18
2022-10-13T09:27:28.572Z,18
2022-10-13T09:32:40.865Z,19
2022-10-13T09:37:52.993Z,19
2022-10-13T09:43:05.352Z,19
2022-10-13T09:48:17.811Z,19
2022-10-13T09:53:30.048Z,19
2022-10-13T09:58:42.460Z,20
2022-10-13T10:03:55.006Z,20
2022-10-13T10:09:07.696Z,20
2022-10-13T10:14:19.747Z,20
2022-10-13T10:19:31.898Z,20
2022-10-13T10:24:44.248Z,21
2022-10-13T10:29:56.649Z,21
2022-10-13T10:35:09.576Z,21
2022-10-13T10:40:21.727Z,21
2022-10-13T10:45:34.068Z,22
2022-10-13T10:50:46.586Z,22
2022-10-13T10:55:58.776Z,22
2022-10-13T11:01:11.344Z,23
2022-10-13T11:06:23.909Z,23
2022-10-13T11:11:38.492Z,26
2022-10-13T11:16:53.549Z,29
2022-10-13T11:22:07.892Z,31
2022-10-13T11:27:24.301Z,31
2022-10-13T11:32:38.177Z,32
2022-10-13T11:43:08.699Z,32
2022-10-13T11:48:25.102Z,32
2022-10-13T11:53:38.044Z,33
2022-10-13T11:58:50.415Z,33
2022-10-13T12:19:35.359Z,33
2022-10-13T12:29:58.586Z,33
2022-10-13T12:35:11.688Z,33
2022-10-13T12:50:44.355Z,32
2022-10-13T12:55:58.470Z,32
2022-10-13T13:27:03.089Z,28
2022-10-13T13:32:15.646Z,29
2022-10-13T13:42:40.380Z,29
2022-10-13T14:18:54.715Z,25
2022-10-13T14:24:06.757Z,24
2022-10-13T14:29:18.868Z,25
2022-10-13T14:34:31.048Z,25
2022-10-13T14:39:43.236Z,25
2022-10-13T14:44:55.494Z,25
2022-10-13T14:50:07.724Z,25
2022-10-13T15:00:30.339Z,25
2022-10-13T15:05:42.349Z,24
2022-10-13T15:16:04.165Z,24
2022-10-13T15:21:16.331Z,24
2022-10-13T15:52:19.756Z,22
2022-10-13T16:02:54.713Z,22
2022-10-13T16:08:05.646Z,22
2022-10-13T16:13:17.574Z,22
2022-10-13T16:28:49.834Z,21
2022-10-13T16:34:01.929Z,21
2022-10-13T16:39:14.076Z,21
2022-10-13T16:49:36.240Z,21
2022-10-13T16:54:48.475Z,21
2022-10-13T17:00:00.526Z,20
2022-10-13T17:05:12.694Z,20
2022-10-13T17:10:24.637Z,20
2022-10-13T17:15:36.997Z,19
2022-10-13T17:20:49.189Z,19
2022-10-13T17:26:01.274Z,19
2022-10-13T17:31:13.570Z,19
2022-10-13T17:36:25.799Z,19
2022-10-13T17:41:38.005Z,19
2022-10-13T17:46:50.342Z,19
2022-10-13T17:52:02.615Z,19
2022-10-13T17:57:15.019Z,19
2022-10-13T18:02:27.052Z,19
2022-10-13T18:07:39.306Z,19
2022-10-13T18:12:51.656Z,19
2022-10-13T18:18:03.693Z,19
2022-10-13T18:23:20.857Z,19
2022-10-13T18:28:33.443Z,19
2022-10-13T18:33:45.569Z,19
2022-10-13T18:38:57.659Z,18
2022-10-13T18:44:09.767Z,18
2022-10-13T18:49:34.400Z,18
2022-10-13T18:54:44.919Z,18
2022-10-13T18:59:56.805Z,18
2022-10-13T19:05:08.893Z,18
2022-10-13T19:10:21.038Z,18
2022-10-13T19:15:33.093Z,18
2022-10-13T19:20:50.800Z,18
2022-10-13T19:26:15.391Z,17
2022-10-13T19:31:25.403Z,18
2022-10-13T19:36:37.428Z,18
2022-10-13T19:41:49.589Z,18
2022-10-13T19:47:01.559Z,17
2022-10-13T19:52:13.453Z,17
2022-10-13T19:57:25.751Z,17
2022-10-13T20:02:37.937Z,17
2022-10-13T20:07:50.204Z,17
2022-10-13T20:13:02.379Z,17
2022-10-13T20:18:14.556Z,17
2022-10-13T20:23:26.744Z,17
2022-10-13T20:28:43.998Z,17
2022-10-13T20:33:59.977Z,17
2022-10-13T20:39:12.036Z,17
2022-10-13T20:44:24.701Z,17
2022-10-13T20:49:36.837Z,17
2022-10-13T20:54:48.838Z,17
2022-10-13T21:00:00.820Z,16
2022-10-13T21:05:12.913Z,16
2022-10-13T21:10:24.917Z,16
2022-10-13T21:15:36.912Z,16
2022-10-13T21:20:48.737Z,16
2022-10-13T21:26:00.726Z,16
2022-10-13T21:31:12.376Z,16
2022-10-13T21:36:24.389Z,16
2022-10-13T21:41:36.209Z,16
2022-10-13T21:46:48.015Z,16
2022-10-13T21:51:59.987Z,16
2022-10-13T22:02:41.742Z,16
2022-10-13T22:07:53.392Z,15
2022-10-13T22:13:05.046Z,15
2022-10-13T22:18:16.987Z,15
2022-10-13T22:23:28.770Z,15
2022-10-13T22:28:41.863Z,15
2022-10-13T22:33:53.617Z,15
2022-10-13T22:39:05.583Z,15
2022-10-13T22:44:17.500Z,15
2022-10-13T22:49:29.359Z,15
2022-10-13T22:54:41.321Z,15
2022-10-13T22:59:53.152Z,15
2022-10-13T23:05:05.361Z,15
2022-10-13T23:10:17.264Z,15
2022-10-13T23:15:28.964Z,15
2022-10-13T23:20:40.882Z,15
2022-10-13T23:25:52.534Z,15
2022-10-13T23:31:04.393Z,14
2022-10-13T23:36:16.381Z,14
2022-10-13T23:41:28.250Z,14
2022-10-13T23:46:39.982Z,14
2022-10-13T23:51:51.780Z,14
2022-10-13T23:57:03.689Z,14
